Central Il Rgnl Arpt at Bloomington-Normal Airport
KBMI : rendu visible

Aérodrome :











RETROUVEZ-NOUS SUR...

 
LOGIN :

S'inscrire | Disclaimer

   EN    FR    IT 

 









Légende :    VFR   VFR Marginal   IFR   IFR Intensif   IFR Très Intensif
Visi : 
Plafond : 
>= 8 km
>= 3000ft
5 à 8 km
1000 à 3000 ft
1500m à 5 km
500 à 1000 ft
800 à 1500m
200 à 500 ft
< 800m
< 200 ft
Symboles :   Orages  Brouillard  Fortes neiges  Fortes précipitations  Vent > 20 kt






- Altitude de l'aérodrome : 871 ft
- Code IATA : BMI


KBMI - Central Il Rgnl Arpt at Bloomington-Normal

DERNIER METAR :
  • 300256Z 31009KT 10SM CLR 16/09 A3015 RMK AO2 SLP202 T01560089 53025

METARs EXPIRÉS :
  • 300156Z 32010KT 10SM CLR 17/09 A3012 RMK AO2 SLP193 T01670089
  • 300056Z 33013KT 10SM CLR 18/09 A3009 RMK AO2 SLP185 T01830089

TAF KBMI
Valide du 30 à 00h jusqu'au 31 à 00h UTC


292329Z 3000/3024 31015G24KT P6SM SCT060
FM300100 32006KT P6SM FEW050
FM301500 34009KT P6SM SCT050 BKN200
FIR KZAU / Amérique du Nord



MET'MAP, la Météo Aéronautique d'un coup d'oeil ! - Copyright ORBIFLY Décembre 2007 - Disclaimer

ORBIFLY MET'MAP TEAM :

Programmation & Développement : Alexandra Zaïnal
Sur une idée originale de : Baudouin d'Aumeries
Assistance à la programmation : Marc-Olivier Méhu
Soutien technique & logistique : Manuel Goepfert

Contact : metmap@orbifly.com




SOURCES & CREDITS :

   NOAA       Earth
Advisory